sensor_id;sensor_type;location;lat;lon;timestamp;temperature;humidity
36322;DHT22;23564;48.290;11.460;2023-05-10T00:00:05;14.00;9.60
36322;DHT22;23564;48.290;11.460;2023-05-10T00:02:31;14.00;10.00
36322;DHT22;23564;48.290;11.460;2023-05-10T00:04:56;14.00;11.10
36322;DHT22;23564;48.290;11.460;2023-05-10T00:07:22;14.10;11.50
36322;DHT22;23564;48.290;11.460;2023-05-10T00:09:47;14.00;11.60
36322;DHT22;23564;48.290;11.460;2023-05-10T00:12:13;14.00;11.70
36322;DHT22;23564;48.290;11.460;2023-05-10T00:14:38;14.00;12.20
36322;DHT22;23564;48.290;11.460;2023-05-10T00:17:04;14.00;12.70
36322;DHT22;23564;48.290;11.460;2023-05-10T00:19:30;14.00;13.80
36322;DHT22;23564;48.290;11.460;2023-05-10T00:21:55;14.10;14.70
36322;DHT22;23564;48.290;11.460;2023-05-10T00:24:21;14.00;15.40
36322;DHT22;23564;48.290;11.460;2023-05-10T00:26:46;14.00;15.90
36322;DHT22;23564;48.290;11.460;2023-05-10T00:29:12;14.00;16.90
36322;DHT22;23564;48.290;11.460;2023-05-10T00:31:37;14.00;17.60
36322;DHT22;23564;48.290;11.460;2023-05-10T00:34:03;14.00;18.90
36322;DHT22;23564;48.290;11.460;2023-05-10T00:36:29;14.00;19.90
36322;DHT22;23564;48.290;11.460;2023-05-10T00:38:54;14.00;20.20
36322;DHT22;23564;48.290;11.460;2023-05-10T00:41:20;14.00;20.40
36322;DHT22;23564;48.290;11.460;2023-05-10T00:43:46;14.00;20.70
36322;DHT22;23564;48.290;11.460;2023-05-10T00:46:12;14.00;21.70
36322;DHT22;23564;48.290;11.460;2023-05-10T00:48:39;14.00;22.10
36322;DHT22;23564;48.290;11.460;2023-05-10T00:51:05;14.00;22.50
36322;DHT22;23564;48.290;11.460;2023-05-10T00:53:31;14.00;22.80
36322;DHT22;23564;48.290;11.460;2023-05-10T00:55:58;13.90;23.90
36322;DHT22;23564;48.290;11.460;2023-05-10T00:58:24;13.90;24.90
36322;DHT22;23564;48.290;11.460;2023-05-10T01:00:54;14.00;25.00
36322;DHT22;23564;48.290;11.460;2023-05-10T01:03:21;13.90;25.60
36322;DHT22;23564;48.290;11.460;2023-05-10T01:05:47;13.90;26.00
36322;DHT22;23564;48.290;11.460;2023-05-10T01:08:12;13.90;26.00
36322;DHT22;23564;48.290;11.460;2023-05-10T01:10:38;13.90;26.80
36322;DHT22;23564;48.290;11.460;2023-05-10T01:13:04;13.90;28.10
36322;DHT22;23564;48.290;11.460;2023-05-10T01:15:30;13.80;27.80
36322;DHT22;23564;48.290;11.460;2023-05-10T01:17:56;13.80;28.00
36322;DHT22;23564;48.290;11.460;2023-05-10T01:20:22;13.80;28.20
36322;DHT22;23564;48.290;11.460;2023-05-10T01:26:14;13.80;30.00
36322;DHT22;23564;48.290;11.460;2023-05-10T01:34:27;13.80;30.10
36322;DHT22;23564;48.290;11.460;2023-05-10T01:37:06;13.70;29.80
36322;DHT22;23564;48.290;11.460;2023-05-10T01:39:44;13.70;30.00
36322;DHT22;23564;48.290;11.460;2023-05-10T01:42:16;13.80;29.70
36322;DHT22;23564;48.290;11.460;2023-05-10T01:47:15;13.70;29.50
36322;DHT22;23564;48.290;11.460;2023-05-10T01:49:54;13.70;31.70
36322;DHT22;23564;48.290;11.460;2023-05-10T01:52:26;13.60;32.70
36322;DHT22;23564;48.290;11.460;2023-05-10T01:55:00;13.60;33.10
36322;DHT22;23564;48.290;11.460;2023-05-10T01:57:32;13.60;33.10
36322;DHT22;23564;48.290;11.460;2023-05-10T02:00:01;13.70;33.40
36322;DHT22;23564;48.290;11.460;2023-05-10T02:02:29;13.60;32.70
36322;DHT22;23564;48.290;11.460;2023-05-10T02:04:56;13.60;32.80
36322;DHT22;23564;48.290;11.460;2023-05-10T02:07:23;13.60;31.90
36322;DHT22;23564;48.290;11.460;2023-05-10T02:09:49;13.60;33.10
36322;DHT22;23564;48.290;11.460;2023-05-10T02:12:17;13.60;33.40
36322;DHT22;23564;48.290;11.460;2023-05-10T02:14:43;13.60;33.50
36322;DHT22;23564;48.290;11.460;2023-05-10T02:17:09;13.50;34.90
36322;DHT22;23564;48.290;11.460;2023-05-10T02:19:38;13.50;34.90
36322;DHT22;23564;48.290;11.460;2023-05-10T02:22:05;13.50;34.70
36322;DHT22;23564;48.290;11.460;2023-05-10T02:24:32;13.60;35.70
36322;DHT22;23564;48.290;11.460;2023-05-10T02:26:59;13.50;33.60
36322;DHT22;23564;48.290;11.460;2023-05-10T02:29:26;13.50;33.60
36322;DHT22;23564;48.290;11.460;2023-05-10T02:31:53;13.40;33.20
36322;DHT22;23564;48.290;11.460;2023-05-10T02:34:20;13.40;33.70
36322;DHT22;23564;48.290;11.460;2023-05-10T02:36:48;13.40;34.80
36322;DHT22;23564;48.290;11.460;2023-05-10T02:39:14;13.40;35.70
36322;DHT22;23564;48.290;11.460;2023-05-10T02:41:42;13.40;36.10
36322;DHT22;23564;48.290;11.460;2023-05-10T02:44:09;13.40;35.10
36322;DHT22;23564;48.290;11.460;2023-05-10T02:46:35;13.40;34.10
36322;DHT22;23564;48.290;11.460;2023-05-10T02:49:03;13.40;34.40
36322;DHT22;23564;48.290;11.460;2023-05-10T02:51:31;13.40;35.80
36322;DHT22;23564;48.290;11.460;2023-05-10T02:54:01;13.30;34.50
36322;DHT22;23564;48.290;11.460;2023-05-10T02:56:32;13.40;34.90
36322;DHT22;23564;48.290;11.460;2023-05-10T02:58:58;13.30;34.90
36322;DHT22;23564;48.290;11.460;2023-05-10T03:01:23;13.40;34.40
36322;DHT22;23564;48.290;11.460;2023-05-10T03:03:49;13.40;33.70
36322;DHT22;23564;48.290;11.460;2023-05-10T03:06:15;13.30;35.00
36322;DHT22;23564;48.290;11.460;2023-05-10T03:08:42;13.40;34.90
36322;DHT22;23564;48.290;11.460;2023-05-10T03:11:23;13.40;34.20
36322;DHT22;23564;48.290;11.460;2023-05-10T03:14:16;13.40;34.70
36322;DHT22;23564;48.290;11.460;2023-05-10T03:16:50;13.30;36.80
36322;DHT22;23564;48.290;11.460;2023-05-10T03:19:38;13.30;36.80
36322;DHT22;23564;48.290;11.460;2023-05-10T03:22:10;13.30;36.50
36322;DHT22;23564;48.290;11.460;2023-05-10T03:24:36;13.20;36.90
36322;DHT22;23564;48.290;11.460;2023-05-10T03:27:05;13.20;36.40
36322;DHT22;23564;48.290;11.460;2023-05-10T03:29:32;13.20;37.70
36322;DHT22;23564;48.290;11.460;2023-05-10T03:31:59;13.20;37.60
36322;DHT22;23564;48.290;11.460;2023-05-10T03:34:30;13.20;38.50
36322;DHT22;23564;48.290;11.460;2023-05-10T03:36:55;13.20;38.20
36322;DHT22;23564;48.290;11.460;2023-05-10T03:39:21;13.20;39.40
36322;DHT22;23564;48.290;11.460;2023-05-10T03:41:47;13.20;40.00
36322;DHT22;23564;48.290;11.460;2023-05-10T03:44:12;13.20;38.50
36322;DHT22;23564;48.290;11.460;2023-05-10T03:46:38;13.20;38.30
36322;DHT22;23564;48.290;11.460;2023-05-10T03:49:03;13.20;39.40
36322;DHT22;23564;48.290;11.460;2023-05-10T03:51:29;13.20;40.20
36322;DHT22;23564;48.290;11.460;2023-05-10T03:53:56;13.10;39.50
36322;DHT22;23564;48.290;11.460;2023-05-10T03:56:22;13.10;39.80
36322;DHT22;23564;48.290;11.460;2023-05-10T03:58:47;13.10;40.70
36322;DHT22;23564;48.290;11.460;2023-05-10T04:01:13;13.20;40.60
36322;DHT22;23564;48.290;11.460;2023-05-10T04:03:38;13.10;40.00
36322;DHT22;23564;48.290;11.460;2023-05-10T04:06:04;13.10;40.90
36322;DHT22;23564;48.290;11.460;2023-05-10T04:08:31;13.10;40.70
36322;DHT22;23564;48.290;11.460;2023-05-10T04:11:10;13.10;41.70
36322;DHT22;23564;48.290;11.460;2023-05-10T04:13:36;13.20;42.30
36322;DHT22;23564;48.290;11.460;2023-05-10T04:16:01;13.20;41.00
36322;DHT22;23564;48.290;11.460;2023-05-10T04:18:27;13.20;41.10
36322;DHT22;23564;48.290;11.460;2023-05-10T04:20:53;13.20;40.50
36322;DHT22;23564;48.290;11.460;2023-05-10T04:23:18;13.20;40.80
36322;DHT22;23564;48.290;11.460;2023-05-10T04:25:44;13.20;41.30
36322;DHT22;23564;48.290;11.460;2023-05-10T04:28:10;13.20;42.10
36322;DHT22;23564;48.290;11.460;2023-05-10T04:30:35;13.20;42.50
36322;DHT22;23564;48.290;11.460;2023-05-10T04:33:01;13.20;42.30
36322;DHT22;23564;48.290;11.460;2023-05-10T04:35:27;13.20;42.70
36322;DHT22;23564;48.290;11.460;2023-05-10T04:37:53;13.20;43.40
36322;DHT22;23564;48.290;11.460;2023-05-10T04:40:19;13.20;43.70
36322;DHT22;23564;48.290;11.460;2023-05-10T04:42:45;13.20;43.10
36322;DHT22;23564;48.290;11.460;2023-05-10T04:45:11;13.20;42.90
36322;DHT22;23564;48.290;11.460;2023-05-10T04:47:37;13.20;44.30
36322;DHT22;23564;48.290;11.460;2023-05-10T04:50:03;13.20;42.60
36322;DHT22;23564;48.290;11.460;2023-05-10T04:52:29;13.20;38.80
36322;DHT22;23564;48.290;11.460;2023-05-10T04:54:55;13.10;35.00
36322;DHT22;23564;48.290;11.460;2023-05-10T04:57:20;13.00;32.50
36322;DHT22;23564;48.290;11.460;2023-05-10T04:59:46;13.10;35.60
36322;DHT22;23564;48.290;11.460;2023-05-10T05:02:12;13.00;34.20
36322;DHT22;23564;48.290;11.460;2023-05-10T05:04:37;13.00;30.70
36322;DHT22;23564;48.290;11.460;2023-05-10T05:07:03;13.00;25.30
36322;DHT22;23564;48.290;11.460;2023-05-10T05:09:28;13.00;25.30
36322;DHT22;23564;48.290;11.460;2023-05-10T05:11:54;13.00;25.60
36322;DHT22;23564;48.290;11.460;2023-05-10T05:14:20;13.00;19.40
36322;DHT22;23564;48.290;11.460;2023-05-10T05:16:51;12.90;16.90
36322;DHT22;23564;48.290;11.460;2023-05-10T05:19:16;12.90;17.20
36322;DHT22;23564;48.290;11.460;2023-05-10T05:21:42;12.90;20.20
36322;DHT22;23564;48.290;11.460;2023-05-10T05:24:08;12.90;22.00
36322;DHT22;23564;48.290;11.460;2023-05-10T05:26:35;12.80;19.60
36322;DHT22;23564;48.290;11.460;2023-05-10T05:29:00;12.80;17.70
36322;DHT22;23564;48.290;11.460;2023-05-10T05:31:26;12.80;19.10
36322;DHT22;23564;48.290;11.460;2023-05-10T05:33:52;12.80;25.60
36322;DHT22;23564;48.290;11.460;2023-05-10T05:36:17;12.90;22.60
36322;DHT22;23564;48.290;11.460;2023-05-10T05:38:43;12.90;28.90
36322;DHT22;23564;48.290;11.460;2023-05-10T05:41:09;12.90;19.60
36322;DHT22;23564;48.290;11.460;2023-05-10T05:43:34;12.90;21.40
36322;DHT22;23564;48.290;11.460;2023-05-10T05:46:00;13.00;23.30
36322;DHT22;23564;48.290;11.460;2023-05-10T05:48:25;13.00;20.00
36322;DHT22;23564;48.290;11.460;2023-05-10T05:50:54;13.00;18.00
36322;DHT22;23564;48.290;11.460;2023-05-10T05:53:20;13.10;23.00
36322;DHT22;23564;48.290;11.460;2023-05-10T05:55:56;13.10;20.00
36322;DHT22;23564;48.290;11.460;2023-05-10T05:58:23;13.20;8.30
36322;DHT22;23564;48.290;11.460;2023-05-10T06:00:49;13.20;1.00
36322;DHT22;23564;48.290;11.460;2023-05-10T06:03:15;13.10;1.50
36322;DHT22;23564;48.290;11.460;2023-05-10T06:05:40;13.10;1.00
36322;DHT22;23564;48.290;11.460;2023-05-10T06:08:06;13.10;4.30
36322;DHT22;23564;48.290;11.460;2023-05-10T06:10:31;13.20;3.40
36322;DHT22;23564;48.290;11.460;2023-05-10T06:12:57;13.20;2.20
36322;DHT22;23564;48.290;11.460;2023-05-10T06:15:23;13.30;1.00
36322;DHT22;23564;48.290;11.460;2023-05-10T06:17:48;13.30;1.00
36322;DHT22;23564;48.290;11.460;2023-05-10T06:20:15;13.30;1.00
36322;DHT22;23564;48.290;11.460;2023-05-10T06:22:41;13.40;1.00
36322;DHT22;23564;48.290;11.460;2023-05-10T06:25:07;13.50;1.00
36322;DHT22;23564;48.290;11.460;2023-05-10T06:27:33;13.60;1.00
36322;DHT22;23564;48.290;11.460;2023-05-10T06:29:58;13.70;1.00
36322;DHT22;23564;48.290;11.460;2023-05-10T06:32:24;13.70;1.00
36322;DHT22;23564;48.290;11.460;2023-05-10T06:34:50;13.70;1.00
36322;DHT22;23564;48.290;11.460;2023-05-10T06:37:15;13.80;1.00
36322;DHT22;23564;48.290;11.460;2023-05-10T06:39:41;13.90;1.00
36322;DHT22;23564;48.290;11.460;2023-05-10T06:42:06;14.10;1.00
36322;DHT22;23564;48.290;11.460;2023-05-10T06:44:32;14.10;1.00
36322;DHT22;23564;48.290;11.460;2023-05-10T06:46:57;14.10;1.00
36322;DHT22;23564;48.290;11.460;2023-05-10T06:49:23;14.20;1.00
36322;DHT22;23564;48.290;11.460;2023-05-10T06:51:49;14.30;1.00
36322;DHT22;23564;48.290;11.460;2023-05-10T06:54:14;14.30;1.00
36322;DHT22;23564;48.290;11.460;2023-05-10T06:56:40;14.30;1.00
36322;DHT22;23564;48.290;11.460;2023-05-10T06:59:05;14.40;1.00
36322;DHT22;23564;48.290;11.460;2023-05-10T07:01:31;14.40;1.00
36322;DHT22;23564;48.290;11.460;2023-05-10T07:03:57;14.50;1.00
36322;DHT22;23564;48.290;11.460;2023-05-10T07:06:22;14.50;1.00
36322;DHT22;23564;48.290;11.460;2023-05-10T07:08:48;14.50;1.00
36322;DHT22;23564;48.290;11.460;2023-05-10T07:11:14;14.60;1.00
36322;DHT22;23564;48.290;11.460;2023-05-10T07:13:39;14.70;1.00
36322;DHT22;23564;48.290;11.460;2023-05-10T07:16:09;14.70;1.00
36322;DHT22;23564;48.290;11.460;2023-05-10T07:18:35;14.80;1.00
36322;DHT22;23564;48.290;11.460;2023-05-10T07:21:00;14.90;1.00
36322;DHT22;23564;48.290;11.460;2023-05-10T07:23:26;15.00;1.00
36322;DHT22;23564;48.290;11.460;2023-05-10T07:25:52;14.90;1.00
36322;DHT22;23564;48.290;11.460;2023-05-10T07:28:19;14.80;1.00
36322;DHT22;23564;48.290;11.460;2023-05-10T07:30:45;14.80;1.00
36322;DHT22;23564;48.290;11.460;2023-05-10T07:33:12;14.80;1.00
36322;DHT22;23564;48.290;11.460;2023-05-10T07:35:38;14.80;1.00
36322;DHT22;23564;48.290;11.460;2023-05-10T07:38:04;14.80;1.00
36322;DHT22;23564;48.290;11.460;2023-05-10T07:40:30;15.00;1.00
36322;DHT22;23564;48.290;11.460;2023-05-10T07:42:55;15.30;1.00
36322;DHT22;23564;48.290;11.460;2023-05-10T07:45:22;15.70;1.00
36322;DHT22;23564;48.290;11.460;2023-05-10T07:47:48;15.90;99.90
36322;DHT22;23564;48.290;11.460;2023-05-10T07:50:14;16.10;99.90
36322;DHT22;23564;48.290;11.460;2023-05-10T07:52:40;16.10;99.90
36322;DHT22;23564;48.290;11.460;2023-05-10T07:55:06;16.10;99.90
36322;DHT22;23564;48.290;11.460;2023-05-10T07:57:33;16.00;49.60
36322;DHT22;23564;48.290;11.460;2023-05-10T07:59:59;15.90;99.90
36322;DHT22;23564;48.290;11.460;2023-05-10T08:02:24;15.80;68.90
36322;DHT22;23564;48.290;11.460;2023-05-10T08:04:50;15.70;99.90
36322;DHT22;23564;48.290;11.460;2023-05-10T08:07:16;15.70;1.00
36322;DHT22;23564;48.290;11.460;2023-05-10T08:09:42;15.70;1.00
36322;DHT22;23564;48.290;11.460;2023-05-10T08:12:08;15.60;1.00
36322;DHT22;23564;48.290;11.460;2023-05-10T08:14:33;15.40;1.00
36322;DHT22;23564;48.290;11.460;2023-05-10T08:16:59;15.40;1.00
36322;DHT22;23564;48.290;11.460;2023-05-10T08:19:24;15.50;1.00
36322;DHT22;23564;48.290;11.460;2023-05-10T08:21:50;15.40;1.00
36322;DHT22;23564;48.290;11.460;2023-05-10T08:24:16;15.50;1.00
36322;DHT22;23564;48.290;11.460;2023-05-10T08:26:41;15.50;99.90
36322;DHT22;23564;48.290;11.460;2023-05-10T08:29:07;15.60;1.00
36322;DHT22;23564;48.290;11.460;2023-05-10T08:31:33;15.60;1.00
36322;DHT22;23564;48.290;11.460;2023-05-10T08:33:58;15.60;1.00
36322;DHT22;23564;48.290;11.460;2023-05-10T08:36:24;15.70;99.90
36322;DHT22;23564;48.290;11.460;2023-05-10T08:38:53;15.70;99.90
36322;DHT22;23564;48.290;11.460;2023-05-10T08:41:23;15.80;99.90
36322;DHT22;23564;48.290;11.460;2023-05-10T08:43:53;15.90;99.90
36322;DHT22;23564;48.290;11.460;2023-05-10T08:46:21;16.10;40.90
36322;DHT22;23564;48.290;11.460;2023-05-10T08:48:49;16.40;85.90
36322;DHT22;23564;48.290;11.460;2023-05-10T08:51:18;16.50;99.90
36322;DHT22;23564;48.290;11.460;2023-05-10T08:53:45;16.70;99.90
36322;DHT22;23564;48.290;11.460;2023-05-10T08:56:11;16.60;55.90
36322;DHT22;23564;48.290;11.460;2023-05-10T08:58:38;16.40;99.90
36322;DHT22;23564;48.290;11.460;2023-05-10T09:01:04;16.30;99.90
36322;DHT22;23564;48.290;11.460;2023-05-10T09:03:30;16.30;31.90
36322;DHT22;23564;48.290;11.460;2023-05-10T09:05:56;16.20;1.00
36322;DHT22;23564;48.290;11.460;2023-05-10T09:08:23;16.00;99.90
36322;DHT22;23564;48.290;11.460;2023-05-10T09:10:52;16.00;1.00
36322;DHT22;23564;48.290;11.460;2023-05-10T09:13:18;15.90;99.90
36322;DHT22;23564;48.290;11.460;2023-05-10T09:15:45;15.80;99.90
36322;DHT22;23564;48.290;11.460;2023-05-10T09:18:11;15.80;99.90
36322;DHT22;23564;48.290;11.460;2023-05-10T09:20:37;15.80;99.90
36322;DHT22;23564;48.290;11.460;2023-05-10T09:23:02;15.80;99.90
36322;DHT22;23564;48.290;11.460;2023-05-10T09:25:28;15.90;1.00
36322;DHT22;23564;48.290;11.460;2023-05-10T09:27:54;16.10;52.10
36322;DHT22;23564;48.290;11.460;2023-05-10T09:30:28;16.30;6.90
36322;DHT22;23564;48.290;11.460;2023-05-10T09:32:55;16.30;99.90
36322;DHT22;23564;48.290;11.460;2023-05-10T09:35:23;16.30;99.90
36322;DHT22;23564;48.290;11.460;2023-05-10T09:37:50;16.20;1.00
36322;DHT22;23564;48.290;11.460;2023-05-10T09:40:18;16.10;1.00
36322;DHT22;23564;48.290;11.460;2023-05-10T09:43:01;16.20;99.90
36322;DHT22;23564;48.290;11.460;2023-05-10T09:45:29;16.20;1.00
36322;DHT22;23564;48.290;11.460;2023-05-10T09:47:55;16.30;1.00
36322;DHT22;23564;48.290;11.460;2023-05-10T09:50:22;16.20;1.00
36322;DHT22;23564;48.290;11.460;2023-05-10T09:52:51;16.30;97.10
36322;DHT22;23564;48.290;11.460;2023-05-10T09:55:22;16.40;43.20
36322;DHT22;23564;48.290;11.460;2023-05-10T09:57:49;16.70;1.00
36322;DHT22;23564;48.290;11.460;2023-05-10T10:00:19;16.90;75.80
36322;DHT22;23564;48.290;11.460;2023-05-10T10:02:54;17.10;1.00
36322;DHT22;23564;48.290;11.460;2023-05-10T10:05:20;17.00;99.90
36322;DHT22;23564;48.290;11.460;2023-05-10T10:07:46;17.00;99.90
36322;DHT22;23564;48.290;11.460;2023-05-10T10:10:12;16.90;99.90
36322;DHT22;23564;48.290;11.460;2023-05-10T10:12:39;17.00;1.00
36322;DHT22;23564;48.290;11.460;2023-05-10T10:15:07;17.00;99.90
36322;DHT22;23564;48.290;11.460;2023-05-10T10:17:35;17.20;99.90
36322;DHT22;23564;48.290;11.460;2023-05-10T10:20:03;17.30;99.90
36322;DHT22;23564;48.290;11.460;2023-05-10T10:22:28;17.30;99.90
36322;DHT22;23564;48.290;11.460;2023-05-10T10:24:54;17.40;99.90
36322;DHT22;23564;48.290;11.460;2023-05-10T10:35:04;17.40;33.80
36322;DHT22;23564;48.290;11.460;2023-05-10T10:37:46;17.40;50.10
36322;DHT22;23564;48.290;11.460;2023-05-10T10:40:25;17.60;1.00
36322;DHT22;23564;48.290;11.460;2023-05-10T10:42:51;17.80;1.00
36322;DHT22;23564;48.290;11.460;2023-05-10T10:45:17;18.00;1.00
36322;DHT22;23564;48.290;11.460;2023-05-10T10:47:44;17.80;99.90
36322;DHT22;23564;48.290;11.460;2023-05-10T10:50:10;17.70;1.00
36322;DHT22;23564;48.290;11.460;2023-05-10T10:52:45;17.50;1.00
36322;DHT22;23564;48.290;11.460;2023-05-10T10:55:12;17.30;1.00
36322;DHT22;23564;48.290;11.460;2023-05-10T11:00:23;16.70;1.00
36322;DHT22;23564;48.290;11.460;2023-05-10T11:05:34;16.40;1.00
36322;DHT22;23564;48.290;11.460;2023-05-10T11:08:07;16.30;1.00
36322;DHT22;23564;48.290;11.460;2023-05-10T11:10:33;16.10;1.00
36322;DHT22;23564;48.290;11.460;2023-05-10T11:13:04;16.00;27.20
36322;DHT22;23564;48.290;11.460;2023-05-10T11:15:32;16.00;99.20
36322;DHT22;23564;48.290;11.460;2023-05-10T11:17:58;16.00;90.60
36322;DHT22;23564;48.290;11.460;2023-05-10T11:20:27;15.90;61.50
36322;DHT22;23564;48.290;11.460;2023-05-10T11:23:10;16.00;1.00
36322;DHT22;23564;48.290;11.460;2023-05-10T11:25:44;16.10;99.90
36322;DHT22;23564;48.290;11.460;2023-05-10T11:28:11;16.20;99.90
36322;DHT22;23564;48.290;11.460;2023-05-10T11:30:38;16.30;91.10
36322;DHT22;23564;48.290;11.460;2023-05-10T11:33:05;16.30;99.90
36322;DHT22;23564;48.290;11.460;2023-05-10T11:35:37;16.40;99.90
36322;DHT22;23564;48.290;11.460;2023-05-10T11:38:08;16.40;99.90
36322;DHT22;23564;48.290;11.460;2023-05-10T11:40:35;16.50;99.90
36322;DHT22;23564;48.290;11.460;2023-05-10T11:43:02;16.40;99.90
36322;DHT22;23564;48.290;11.460;2023-05-10T11:45:28;16.30;99.90
36322;DHT22;23564;48.290;11.460;2023-05-10T11:47:55;16.30;99.90
36322;DHT22;23564;48.290;11.460;2023-05-10T11:50:22;16.30;99.90
36322;DHT22;23564;48.290;11.460;2023-05-10T11:52:52;16.40;99.90
36322;DHT22;23564;48.290;11.460;2023-05-10T11:55:17;16.40;99.90
36322;DHT22;23564;48.290;11.460;2023-05-10T11:57:43;16.30;99.90
36322;DHT22;23564;48.290;11.460;2023-05-10T12:00:12;16.30;99.90
36322;DHT22;23564;48.290;11.460;2023-05-10T12:02:38;16.20;1.00
36322;DHT22;23564;48.290;11.460;2023-05-10T12:05:05;16.00;25.80
36322;DHT22;23564;48.290;11.460;2023-05-10T12:07:31;15.80;1.00
36322;DHT22;23564;48.290;11.460;2023-05-10T12:10:10;15.50;1.00
36322;DHT22;23564;48.290;11.460;2023-05-10T12:12:46;15.20;1.00
36322;DHT22;23564;48.290;11.460;2023-05-10T12:15:23;14.90;99.90
36322;DHT22;23564;48.290;11.460;2023-05-10T12:17:50;14.70;99.90
36322;DHT22;23564;48.290;11.460;2023-05-10T12:20:17;14.70;99.90
36322;DHT22;23564;48.290;11.460;2023-05-10T12:22:53;14.60;99.90
36322;DHT22;23564;48.290;11.460;2023-05-10T12:25:22;14.40;1.00
36322;DHT22;23564;48.290;11.460;2023-05-10T12:27:52;14.30;99.90
36322;DHT22;23564;48.290;11.460;2023-05-10T12:30:25;14.20;99.90
36322;DHT22;23564;48.290;11.460;2023-05-10T12:32:52;14.30;99.90
36322;DHT22;23564;48.290;11.460;2023-05-10T12:35:18;14.30;99.90
36322;DHT22;23564;48.290;11.460;2023-05-10T12:37:47;14.20;99.90
36322;DHT22;23564;48.290;11.460;2023-05-10T12:40:13;14.20;99.90
36322;DHT22;23564;48.290;11.460;2023-05-10T12:42:39;14.10;99.90
36322;DHT22;23564;48.290;11.460;2023-05-10T12:45:06;14.00;99.90
36322;DHT22;23564;48.290;11.460;2023-05-10T12:47:32;14.00;99.90
36322;DHT22;23564;48.290;11.460;2023-05-10T12:49:59;14.00;99.90
36322;DHT22;23564;48.290;11.460;2023-05-10T12:52:25;14.00;99.90
36322;DHT22;23564;48.290;11.460;2023-05-10T12:54:51;13.90;99.90
36322;DHT22;23564;48.290;11.460;2023-05-10T12:57:18;14.00;99.90
36322;DHT22;23564;48.290;11.460;2023-05-10T12:59:43;14.00;99.90
36322;DHT22;23564;48.290;11.460;2023-05-10T13:02:09;14.00;99.90
36322;DHT22;23564;48.290;11.460;2023-05-10T13:04:35;14.10;99.90
36322;DHT22;23564;48.290;11.460;2023-05-10T13:07:05;14.10;99.90
36322;DHT22;23564;48.290;11.460;2023-05-10T13:09:30;14.20;99.90
36322;DHT22;23564;48.290;11.460;2023-05-10T13:11:56;14.30;99.90
36322;DHT22;23564;48.290;11.460;2023-05-10T13:14:22;14.50;99.90
36322;DHT22;23564;48.290;11.460;2023-05-10T13:16:47;14.60;99.90
36322;DHT22;23564;48.290;11.460;2023-05-10T13:19:13;14.80;99.90
36322;DHT22;23564;48.290;11.460;2023-05-10T13:21:39;14.90;99.90
36322;DHT22;23564;48.290;11.460;2023-05-10T13:24:06;15.10;99.90
36322;DHT22;23564;48.290;11.460;2023-05-10T13:26:32;15.10;99.90
36322;DHT22;23564;48.290;11.460;2023-05-10T13:28:58;15.20;99.90
36322;DHT22;23564;48.290;11.460;2023-05-10T13:31:24;15.40;99.90
36322;DHT22;23564;48.290;11.460;2023-05-10T13:33:49;15.40;99.90
36322;DHT22;23564;48.290;11.460;2023-05-10T13:36:15;15.70;99.90
36322;DHT22;23564;48.290;11.460;2023-05-10T13:38:41;15.80;99.90
36322;DHT22;23564;48.290;11.460;2023-05-10T13:41:07;15.90;99.90
36322;DHT22;23564;48.290;11.460;2023-05-10T13:43:33;16.00;99.90
36322;DHT22;23564;48.290;11.460;2023-05-10T13:45:58;16.20;99.90
36322;DHT22;23564;48.290;11.460;2023-05-10T13:48:24;16.30;99.90
36322;DHT22;23564;48.290;11.460;2023-05-10T13:50:49;16.40;99.90
36322;DHT22;23564;48.290;11.460;2023-05-10T13:53:15;16.40;99.90
36322;DHT22;23564;48.290;11.460;2023-05-10T13:55:41;16.50;99.90
36322;DHT22;23564;48.290;11.460;2023-05-10T13:58:06;16.50;99.90
36322;DHT22;23564;48.290;11.460;2023-05-10T14:00:32;16.50;99.90
36322;DHT22;23564;48.290;11.460;2023-05-10T14:02:58;16.30;99.90
36322;DHT22;23564;48.290;11.460;2023-05-10T14:05:23;16.20;99.90
36322;DHT22;23564;48.290;11.460;2023-05-10T14:07:50;16.00;99.90
36322;DHT22;23564;48.290;11.460;2023-05-10T14:10:16;15.90;99.90
36322;DHT22;23564;48.290;11.460;2023-05-10T14:12:41;15.80;99.90
36322;DHT22;23564;48.290;11.460;2023-05-10T14:15:07;15.90;99.90
36322;DHT22;23564;48.290;11.460;2023-05-10T14:17:33;15.80;99.90
36322;DHT22;23564;48.290;11.460;2023-05-10T14:19:59;15.70;99.90
36322;DHT22;23564;48.290;11.460;2023-05-10T14:22:24;15.40;99.90
36322;DHT22;23564;48.290;11.460;2023-05-10T14:24:50;15.20;99.90
36322;DHT22;23564;48.290;11.460;2023-05-10T14:27:16;15.10;1.00
36322;DHT22;23564;48.290;11.460;2023-05-10T14:29:41;15.10;1.00
36322;DHT22;23564;48.290;11.460;2023-05-10T14:32:08;14.90;1.00
36322;DHT22;23564;48.290;11.460;2023-05-10T14:34:33;14.80;1.00
36322;DHT22;23564;48.290;11.460;2023-05-10T14:36:59;14.80;1.00
36322;DHT22;23564;48.290;11.460;2023-05-10T14:39:25;14.80;1.00
36322;DHT22;23564;48.290;11.460;2023-05-10T14:41:50;14.80;1.00
36322;DHT22;23564;48.290;11.460;2023-05-10T14:44:17;14.80;1.00
36322;DHT22;23564;48.290;11.460;2023-05-10T14:46:43;14.70;1.00
36322;DHT22;23564;48.290;11.460;2023-05-10T14:49:08;14.60;1.00
36322;DHT22;23564;48.290;11.460;2023-05-10T14:51:34;14.50;1.00
36322;DHT22;23564;48.290;11.460;2023-05-10T14:53:59;14.50;1.00
36322;DHT22;23564;48.290;11.460;2023-05-10T14:56:25;14.50;1.00
36322;DHT22;23564;48.290;11.460;2023-05-10T14:58:51;14.50;1.00
36322;DHT22;23564;48.290;11.460;2023-05-10T15:01:17;14.40;1.00
36322;DHT22;23564;48.290;11.460;2023-05-10T15:03:42;14.40;1.00
36322;DHT22;23564;48.290;11.460;2023-05-10T15:06:08;14.40;1.00
36322;DHT22;23564;48.290;11.460;2023-05-10T15:08:34;14.40;1.00
36322;DHT22;23564;48.290;11.460;2023-05-10T15:10:59;14.40;1.00
36322;DHT22;23564;48.290;11.460;2023-05-10T15:13:25;14.40;1.00
36322;DHT22;23564;48.290;11.460;2023-05-10T15:15:51;14.40;1.00
36322;DHT22;23564;48.290;11.460;2023-05-10T15:18:16;14.40;1.00
36322;DHT22;23564;48.290;11.460;2023-05-10T15:20:42;14.40;1.00
36322;DHT22;23564;48.290;11.460;2023-05-10T15:23:07;14.40;1.00
36322;DHT22;23564;48.290;11.460;2023-05-10T15:25:33;14.50;1.00
36322;DHT22;23564;48.290;11.460;2023-05-10T15:28:03;14.50;1.00
36322;DHT22;23564;48.290;11.460;2023-05-10T15:30:29;14.60;1.00
36322;DHT22;23564;48.290;11.460;2023-05-10T15:32:55;14.70;1.00
36322;DHT22;23564;48.290;11.460;2023-05-10T15:35:20;14.50;1.00
36322;DHT22;23564;48.290;11.460;2023-05-10T15:37:48;14.40;1.00
36322;DHT22;23564;48.290;11.460;2023-05-10T15:40:14;14.30;1.00
36322;DHT22;23564;48.290;11.460;2023-05-10T15:42:40;14.30;1.00